Aviation Digital Data Service (ADDS)

Output produced by METARs form (1140 UTC 25 June 2019)
found at http://www.aviationweather.gov/metar/data/
 
METAR text: GLRB 251100Z 27005KT 9999 SCT018 FEW026CB 31/24 Q1014 RMK CB-W
Conditions at: GLRB (ROBERTS INTL/MON, LR) observed 1100 UTC 25 June 2019
Temperature: 31.0°C (88°F)
Dewpoint: 24.0°C (75°F) [RH = 66%]
Pressure (altimeter): 29.94 inches Hg (1014.0 mb)
Winds: from the W (270 degrees) at 6 MPH (5 knots; 2.6 m/s)
Visibility: 6 or more miles (10+ km)
Ceiling: at least 12,000 feet AGL
Clouds: scattered clouds at 1800 feet AGL
few clouds at 2600 feet AGL
Weather: no significant weather observed at this time

METAR text: GLRB 251000Z 00000KT 9999 SCT018 FEW026CB 30/26 Q1014 RMK CB-SW
Conditions at: GLRB (ROBERTS INTL/MON, LR) observed 1000 UTC 25 June 2019
Temperature: 30.0°C (86°F)
Dewpoint: 26.0°C (79°F) [RH = 79%]
Pressure (altimeter): 29.94 inches Hg (1014.0 mb)
Winds: calm
Visibility: 6 or more miles (10+ km)
Ceiling: at least 12,000 feet AGL
Clouds: scattered clouds at 1800 feet AGL
few clouds at 2600 feet AGL
Weather: no significant weather observed at this time

METAR text: GLRB 250900Z 00000KT 9999 SCT016 FEW025CB 28/26 Q1014 RMK CB-SW
Conditions at: GLRB (ROBERTS INTL/MON, LR) observed 0900 UTC 25 June 2019
Temperature: 28.0°C (82°F)
Dewpoint: 26.0°C (79°F) [RH = 89%]
Pressure (altimeter): 29.94 inches Hg (1014.0 mb)
Winds: calm
Visibility: 6 or more miles (10+ km)
Ceiling: at least 12,000 feet AGL
Clouds: scattered clouds at 1600 feet AGL
few clouds at 2500 feet AGL
Weather: no significant weather observed at this time

METAR text: GLRB 250800Z 00000KT 9999 SCT012 25/24 Q1014 NOSIG
Conditions at: GLRB (ROBERTS INTL/MON, LR) observed 0800 UTC 25 June 2019
Temperature: 25.0°C (77°F)
Dewpoint: 24.0°C (75°F) [RH = 94%]
Pressure (altimeter): 29.94 inches Hg (1014.0 mb)
Winds: calm
Visibility: 6 or more miles (10+ km)
Ceiling: at least 12,000 feet AGL
Clouds: scattered clouds at 1200 feet AGL
Weather: no significant weather observed at this time

METAR text: GLRB 250700Z 00000KT 9999 SCT011 23/22 Q1013 NOSIG
Conditions at: GLRB (ROBERTS INTL/MON, LR) observed 0700 UTC 25 June 2019
Temperature: 23.0°C (73°F)
Dewpoint: 22.0°C (72°F) [RH = 94%]
Pressure (altimeter): 29.91 inches Hg (1013.0 mb)
Winds: calm
Visibility: 6 or more miles (10+ km)
Ceiling: at least 12,000 feet AGL
Clouds: scattered clouds at 1100 feet AGL
Weather: no significant weather observed at this time

METAR text: GLRB 250600Z 00000KT 9999 FEW011 24/23 Q1013 NOSIG
Conditions at: GLRB (ROBERTS INTL/MON, LR) observed 0600 UTC 25 June 2019
Temperature: 24.0°C (75°F)
Dewpoint: 23.0°C (73°F) [RH = 94%]
Pressure (altimeter): 29.91 inches Hg (1013.0 mb)
Winds: calm
Visibility: 6 or more miles (10+ km)
Ceiling: at least 12,000 feet AGL
Clouds: few clouds at 1100 feet AGL
Weather: no significant weather observed at this time

METAR text: GLRB 250500Z 00000KT 9999 FEW011 24/23 Q1012 NOSIG
Conditions at: GLRB (ROBERTS INTL/MON, LR) observed 0500 UTC 25 June 2019
Temperature: 24.0°C (75°F)
Dewpoint: 23.0°C (73°F) [RH = 94%]
Pressure (altimeter): 29.88 inches Hg (1012.0 mb)
Winds: calm
Visibility: 6 or more miles (10+ km)
Ceiling: at least 12,000 feet AGL
Clouds: few clouds at 1100 feet AGL
Weather: no significant weather observed at this time

METAR text: GLRB 250300Z 00000KT 9999 SCT011 24/23 Q1012 NOSIG
Conditions at: GLRB (ROBERTS INTL/MON, LR) observed 0300 UTC 25 June 2019
Temperature: 24.0°C (75°F)
Dewpoint: 23.0°C (73°F) [RH = 94%]
Pressure (altimeter): 29.88 inches Hg (1012.0 mb)
Winds: calm
Visibility: 6 or more miles (10+ km)
Ceiling: at least 12,000 feet AGL
Clouds: scattered clouds at 1100 feet AGL
Weather: no significant weather observed at this time

METAR text: GLRB 250000Z 00000KT 9999 SCT012 25/24 Q1014 NOSIG
Conditions at: GLRB (ROBERTS INTL/MON, LR) observed 0000 UTC 25 June 2019
Temperature: 25.0°C (77°F)
Dewpoint: 24.0°C (75°F) [RH = 94%]
Pressure (altimeter): 29.94 inches Hg (1014.0 mb)
Winds: calm
Visibility: 6 or more miles (10+ km)
Ceiling: at least 12,000 feet AGL
Clouds: scattered clouds at 1200 feet AGL
Weather: no significant weather observed at this time

METAR text: GLRB 242200Z 00000KT 9999 SCT014 25/24 Q1014 NOSIG
Conditions at: GLRB (ROBERTS INTL/MON, LR) observed 2200 UTC 24 June 2019
Temperature: 25.0°C (77°F)
Dewpoint: 24.0°C (75°F) [RH = 94%]
Pressure (altimeter): 29.94 inches Hg (1014.0 mb)
Winds: calm
Visibility: 6 or more miles (10+ km)
Ceiling: at least 12,000 feet AGL
Clouds: scattered clouds at 1400 feet AGL
Weather: no significant weather observed at this time

METAR text: GLRB 242100Z 00000KT 9999 BKN014 25/24 Q1014 NOSIG
Conditions at: GLRB (ROBERTS INTL/MON, LR) observed 2100 UTC 24 June 2019
Temperature: 25.0°C (77°F)
Dewpoint: 24.0°C (75°F) [RH = 94%]
Pressure (altimeter): 29.94 inches Hg (1014.0 mb)
Winds: calm
Visibility: 6 or more miles (10+ km)
Ceiling: 1400 feet AGL
Clouds: broken clouds at 1400 feet AGL
Weather: no significant weather observed at this time

METAR text: GLRB 242000Z 00000KT 9999 BKN014 25/24 Q1013 NOSIG
Conditions at: GLRB (ROBERTS INTL/MON, LR) observed 2000 UTC 24 June 2019
Temperature: 25.0°C (77°F)
Dewpoint: 24.0°C (75°F) [RH = 94%]
Pressure (altimeter): 29.91 inches Hg (1013.0 mb)
Winds: calm
Visibility: 6 or more miles (10+ km)
Ceiling: 1400 feet AGL
Clouds: broken clouds at 1400 feet AGL
Weather: no significant weather observed at this time

METAR text: GLRB 241900Z 00000KT 9999 BKN014 25/24 Q1012 NOSIG
Conditions at: GLRB (ROBERTS INTL/MON, LR) observed 1900 UTC 24 June 2019
Temperature: 25.0°C (77°F)
Dewpoint: 24.0°C (75°F) [RH = 94%]
Pressure (altimeter): 29.88 inches Hg (1012.0 mb)
Winds: calm
Visibility: 6 or more miles (10+ km)
Ceiling: 1400 feet AGL
Clouds: broken clouds at 1400 feet AGL
Weather: no significant weather observed at this time

METAR text: GLRB 241800Z 28003KT 9999 BKN016 27/24 Q1012 NOSIG
Conditions at: GLRB (ROBERTS INTL/MON, LR) observed 1800 UTC 24 June 2019
Temperature: 27.0°C (81°F)
Dewpoint: 24.0°C (75°F) [RH = 84%]
Pressure (altimeter): 29.88 inches Hg (1012.0 mb)
Winds: from the W (280 degrees) at 3 MPH (3 knots; 1.5 m/s)
Visibility: 6 or more miles (10+ km)
Ceiling: 1600 feet AGL
Clouds: broken clouds at 1600 feet AGL
Weather: no significant weather observed at this time

METAR text: GLRB 241700Z 27006KT 9999 BKN016 28/24 Q1012 NOSIG
Conditions at: GLRB (ROBERTS INTL/MON, LR) observed 1700 UTC 24 June 2019
Temperature: 28.0°C (82°F)
Dewpoint: 24.0°C (75°F) [RH = 79%]
Pressure (altimeter): 29.88 inches Hg (1012.0 mb)
Winds: from the W (270 degrees) at 7 MPH (6 knots; 3.1 m/s)
Visibility: 6 or more miles (10+ km)
Ceiling: 1600 feet AGL
Clouds: broken clouds at 1600 feet AGL
Weather: no significant weather observed at this time

METAR text: GLRB 241600Z 25008KT 9999 BKN018 FEW026CB 29/24 Q1012 RMK CB-S
Conditions at: GLRB (ROBERTS INTL/MON, LR) observed 1600 UTC 24 June 2019
Temperature: 29.0°C (84°F)
Dewpoint: 24.0°C (75°F) [RH = 74%]
Pressure (altimeter): 29.88 inches Hg (1012.0 mb)
Winds: from the WSW (250 degrees) at 9 MPH (8 knots; 4.1 m/s)
Visibility: 6 or more miles (10+ km)
Ceiling: 1800 feet AGL
Clouds: broken clouds at 1800 feet AGL
few clouds at 2600 feet AGL
Weather: no significant weather observed at this time

METAR text: GLRB 241500Z 24008KT 9999 BKN018 FEW026CB 29/23 Q1013 RMK CB-S
Conditions at: GLRB (ROBERTS INTL/MON, LR) observed 1500 UTC 24 June 2019
Temperature: 29.0°C (84°F)
Dewpoint: 23.0°C (73°F) [RH = 70%]
Pressure (altimeter): 29.91 inches Hg (1013.0 mb)
Winds: from the WSW (240 degrees) at 9 MPH (8 knots; 4.1 m/s)
Visibility: 6 or more miles (10+ km)
Ceiling: 1800 feet AGL
Clouds: broken clouds at 1800 feet AGL
few clouds at 2600 feet AGL
Weather: no significant weather observed at this time

METAR text: GLRB 241300Z 23006KT 9999 BKN017 FEW026CB 30/23 Q1013 RMK CB-S/SW
Conditions at: GLRB (ROBERTS INTL/MON, LR) observed 1300 UTC 24 June 2019
Temperature: 30.0°C (86°F)
Dewpoint: 23.0°C (73°F) [RH = 66%]
Pressure (altimeter): 29.91 inches Hg (1013.0 mb)
Winds: from the SW (230 degrees) at 7 MPH (6 knots; 3.1 m/s)
Visibility: 6 or more miles (10+ km)
Ceiling: 1700 feet AGL
Clouds: broken clouds at 1700 feet AGL
few clouds at 2600 feet AGL
Weather: no significant weather observed at this time

METAR text: GLRB 241200Z 22006KT 9999 BKN017 FEW026CB 29/23 Q1014 RMK CB-S/SW
Conditions at: GLRB (ROBERTS INTL/MON, LR) observed 1200 UTC 24 June 2019
Temperature: 29.0°C (84°F)
Dewpoint: 23.0°C (73°F) [RH = 70%]
Pressure (altimeter): 29.94 inches Hg (1014.0 mb)
Winds: from the SW (220 degrees) at 7 MPH (6 knots; 3.1 m/s)
Visibility: 6 or more miles (10+ km)
Ceiling: 1700 feet AGL
Clouds: broken clouds at 1700 feet AGL
few clouds at 2600 feet AGL
Weather: no significant weather observed at this time

METAR text: GLRB 241100Z 15008KT 9999 BKN015 FEW025CB 28/23 Q1015 RMK CB-S/SW/W
Conditions at: GLRB (ROBERTS INTL/MON, LR) observed 1100 UTC 24 June 2019
Temperature: 28.0°C (82°F)
Dewpoint: 23.0°C (73°F) [RH = 74%]
Pressure (altimeter): 29.97 inches Hg (1015.0 mb)
Winds: from the SSE (150 degrees) at 9 MPH (8 knots; 4.1 m/s)
Visibility: 6 or more miles (10+ km)
Ceiling: 1500 feet AGL
Clouds: broken clouds at 1500 feet AGL
few clouds at 2500 feet AGL
Weather: no significant weather observed at this time

METAR text: GLRB 241000Z 00000KT 9999 BKN012 FEW023CB 25/24 Q1015 RMK CB-S/SW/W
Conditions at: GLRB (ROBERTS INTL/MON, LR) observed 1000 UTC 24 June 2019
Temperature: 25.0°C (77°F)
Dewpoint: 24.0°C (75°F) [RH = 94%]
Pressure (altimeter): 29.97 inches Hg (1015.0 mb)
Winds: calm
Visibility: 6 or more miles (10+ km)
Ceiling: 1200 feet AGL
Clouds: broken clouds at 1200 feet AGL
few clouds at 2300 feet AGL
Weather: no significant weather observed at this time

METAR text: GLRB 240900Z 00000KT 9999 REDZ FEW008 BKN011 FEW022CB 23/22 Q1015 RMK CB-S/SW
Conditions at: GLRB (ROBERTS INTL/MON, LR) observed 0900 UTC 24 June 2019
Temperature: 23.0°C (73°F)
Dewpoint: 22.0°C (72°F) [RH = 94%]
Pressure (altimeter): 29.97 inches Hg (1015.0 mb)
Winds: calm
Visibility: 6 or more miles (10+ km)
Ceiling: 1100 feet AGL
Clouds: few clouds at 800 feet AGL
broken clouds at 1100 feet AGL
few clouds at 2200 feet AGL
Weather: no significant weather observed at this time

METAR text: GLRB 240800Z 22007KT 9000 -RA SCT005 BKN011 FEW022CB 24/23 Q1015 TEMPO RA RMK CB-NE/SE
Conditions at: GLRB (ROBERTS INTL/MON, LR) observed 0800 UTC 24 June 2019
Temperature: 24.0°C (75°F)
Dewpoint: 23.0°C (73°F) [RH = 94%]
Pressure (altimeter): 29.97 inches Hg (1015.0 mb)
Winds: from the SW (220 degrees) at 8 MPH (7 knots; 3.6 m/s)
Visibility: 6 miles ( 9 km)
Ceiling: 1100 feet AGL
Clouds: scattered clouds at 500 feet AGL
broken clouds at 1100 feet AGL
few clouds at 2200 feet AGL
Weather: -RA  (light rain)

METAR text: GLRB 240700Z 18007KT 5000 -RA SCT005 BKN011 FEW022CB 24/23 Q1014 TEMPO RA RMK CB-NE/SE
Conditions at: GLRB (ROBERTS INTL/MON, LR) observed 0700 UTC 24 June 2019
Temperature: 24.0°C (75°F)
Dewpoint: 23.0°C (73°F) [RH = 94%]
Pressure (altimeter): 29.94 inches Hg (1014.0 mb)
Winds: from the S (180 degrees) at 8 MPH (7 knots; 3.6 m/s)
Visibility: 3 miles ( 5 km)
Ceiling: 1100 feet AGL
Clouds: scattered clouds at 500 feet AGL
broken clouds at 1100 feet AGL
few clouds at 2200 feet AGL
Weather: -RA  (light rain)

METAR text: GLRB 240600Z 00000KT 9999 BKN011 FEW022CB 24/23 Q1013 RMK CB-NE/SW
Conditions at: GLRB (ROBERTS INTL/MON, LR) observed 0600 UTC 24 June 2019
Temperature: 24.0°C (75°F)
Dewpoint: 23.0°C (73°F) [RH = 94%]
Pressure (altimeter): 29.91 inches Hg (1013.0 mb)
Winds: calm
Visibility: 6 or more miles (10+ km)
Ceiling: 1100 feet AGL
Clouds: broken clouds at 1100 feet AGL
few clouds at 2200 feet AGL
Weather: no significant weather observed at this time

METAR text: GLRB 240500Z 00000KT 9999 BKN011 FEW022CB 24/23 Q1013 RMK CB-NE/SW
Conditions at: GLRB (ROBERTS INTL/MON, LR) observed 0500 UTC 24 June 2019
Temperature: 24.0°C (75°F)
Dewpoint: 23.0°C (73°F) [RH = 94%]
Pressure (altimeter): 29.91 inches Hg (1013.0 mb)
Winds: calm
Visibility: 6 or more miles (10+ km)
Ceiling: 1100 feet AGL
Clouds: broken clouds at 1100 feet AGL
few clouds at 2200 feet AGL
Weather: no significant weather observed at this time

METAR text: GLRB 240300Z 00000KT 9999 SCT011 FEW022CB 24/23 Q1013 RMK CB-NE/SW
Conditions at: GLRB (ROBERTS INTL/MON, LR) observed 0300 UTC 24 June 2019
Temperature: 24.0°C (75°F)
Dewpoint: 23.0°C (73°F) [RH = 94%]
Pressure (altimeter): 29.91 inches Hg (1013.0 mb)
Winds: calm
Visibility: 6 or more miles (10+ km)
Ceiling: at least 12,000 feet AGL
Clouds: scattered clouds at 1100 feet AGL
few clouds at 2200 feet AGL
Weather: no significant weather observed at this time

METAR text: GLRB 240200Z 00000KT 9999 SCT011 FEW022CB SCT100 24/23 Q1013 RMK CB-NE/SW
Conditions at: GLRB (ROBERTS INTL/MON, LR) observed 0200 UTC 24 June 2019
Temperature: 24.0°C (75°F)
Dewpoint: 23.0°C (73°F) [RH = 94%]
Pressure (altimeter): 29.91 inches Hg (1013.0 mb)
Winds: calm
Visibility: 6 or more miles (10+ km)
Ceiling: at least 12,000 feet AGL
Clouds: scattered clouds at 1100 feet AGL
few clouds at 2200 feet AGL
scattered clouds at 10000 feet AGL
Weather: no significant weather observed at this time

METAR text: GLRB 240100Z 00000KT 9999 SCT011 FEW022CB SCT100 24/23 Q1014 RMK CB-NE/SW
Conditions at: GLRB (ROBERTS INTL/MON, LR) observed 0100 UTC 24 June 2019
Temperature: 24.0°C (75°F)
Dewpoint: 23.0°C (73°F) [RH = 94%]
Pressure (altimeter): 29.94 inches Hg (1014.0 mb)
Winds: calm
Visibility: 6 or more miles (10+ km)
Ceiling: at least 12,000 feet AGL
Clouds: scattered clouds at 1100 feet AGL
few clouds at 2200 feet AGL
scattered clouds at 10000 feet AGL
Weather: no significant weather observed at this time

METAR text: GLRB 240000Z 00000KT 9999 SCT011 FEW022CB 24/23 Q1014 RMK CB-NE/SW
Conditions at: GLRB (ROBERTS INTL/MON, LR) observed 0000 UTC 24 June 2019
Temperature: 24.0°C (75°F)
Dewpoint: 23.0°C (73°F) [RH = 94%]
Pressure (altimeter): 29.94 inches Hg (1014.0 mb)
Winds: calm
Visibility: 6 or more miles (10+ km)
Ceiling: at least 12,000 feet AGL
Clouds: scattered clouds at 1100 feet AGL
few clouds at 2200 feet AGL
Weather: no significant weather observed at this time

Forecast for: GLRB (ROBERTS INTL/MON, LR)
Text: TAF GLRB 250400Z 2506/2612 24010KT 9999 BKN020
Forecast period: 0600 to 0700 UTC 25 June 2019
Forecast type: FROM: standard forecast or significant change
Winds: from the WSW (240 degrees) at 12 MPH (10 knots; 5.1 m/s)
Visibility: 6 or more miles 10+ km)
Ceiling: 2000 feet AGL
Clouds: broken clouds at 2000 feet AGL
Weather: no significant weather forecast for this period
Text: BECMG 2507/2509 03003KT 8000 SCTO12 FEW022CB
Forecast period: 0700 UTC 25 June 2019 to 1200 UTC 26 June 2019
Forecast type: BECOMING: Conditions expected to become as follows by 0900 UTC 25 June 2019
Winds: from the NNE (30 degrees) at 3 MPH (3 knots; 1.5 m/s)
Visibility: 5 miles (8 km)
Ceiling: at least 12,000 feet AGL
Clouds: few clouds at 2200 feet AGL
Weather: no significant weather forecast for this period
Text: TEMPO 2510/2514 23010KT 9000 BKN020 FEW026CB
Forecast period: 1000 to 1400 UTC 25 June 2019
Forecast type: TEMPORARY: The following changes expected for less than half the time period
Winds: from the SW (230 degrees) at 12 MPH (10 knots; 5.1 m/s)
Visibility: 6 miles (9 km)
Ceiling: 2000 feet AGL
Clouds: broken clouds at 2000 feet AGL
few clouds at 2600 feet AGL
Weather: no significant weather forecast for this period
Text: TEMPO 2515/2519 22007KT 8000 TS BKN013 FEW025CB
Forecast period: 1500 to 1900 UTC 25 June 2019
Forecast type: TEMPORARY: The following changes expected for less than half the time period
Winds: from the SW (220 degrees) at 8 MPH (7 knots; 3.6 m/s)
Visibility: 5 miles (8 km)
Ceiling: 1300 feet AGL
Clouds: broken clouds at 1300 feet AGL
few clouds at 2500 feet AGL
Weather: TS  (thunderstorm)